EDAM weather

Flugplatz Merseburg
Merseburg, Saxony-Anhalt, Germany

Public forecast

Using degrees Celsius for public forecast. Weather courtesy of forecast.io.

Closest aviation weather report (METAR) to Flugplatz Merseburg

Closest report is Leipzig/Halle Airport, 11.7 nm (21.6 km) ENE. Retrieved 2020/07/03 18:20 UTC (32 minutes ago):

EDDP 031820Z 26011KT CAVOK 22/10 Q1016 NOSIG

Closest aviation forecast (TAF) to Flugplatz Merseburg

Closest forecast is Leipzig/Halle Airport, 11.7 nm (21.6 km) ENE. Retrieved 2020/07/03 18:27 UTC (25 minutes ago):

TAF COR EDDP 031700Z 0318/0418 26011KT CAVOK BECMG 0318/0320 22006KT BECMG 0405/0407 23012KT BECMG 0407/0410 23015G25KT PROB30 TEMPO 0410/0415 24020G30KT